createdAt,value
2019-06-26T00:00:09.627Z,8.45
2019-06-26T00:02:39.252Z,9.83
2019-06-26T00:05:08.567Z,12.30
2019-06-26T00:07:37.747Z,7.00
2019-06-26T00:10:07.122Z,8.30
2019-06-26T00:12:36.308Z,8.33
2019-06-26T00:15:07.469Z,13.58
2019-06-26T00:17:37.689Z,9.98
2019-06-26T00:20:07.104Z,8.45
2019-06-26T00:22:36.286Z,11.08
2019-06-26T00:25:06.972Z,7.33
2019-06-26T00:27:36.340Z,9.88
2019-06-26T00:30:08.707Z,10.70
2019-06-26T00:32:38.036Z,8.05
2019-06-26T00:35:07.276Z,6.67
2019-06-26T00:37:36.524Z,9.53
2019-06-26T00:40:06.372Z,7.50
2019-06-26T00:42:35.761Z,8.55
2019-06-26T00:45:08.839Z,7.70
2019-06-26T00:47:38.087Z,7.12
2019-06-26T00:50:08.079Z,9.73
2019-06-26T00:52:37.443Z,7.33
2019-06-26T00:55:09.743Z,8.13
2019-06-26T00:57:38.910Z,5.78
2019-06-26T01:00:09.599Z,6.60
2019-06-26T01:02:38.932Z,7.15
2019-06-26T01:05:10.537Z,5.40
2019-06-26T01:07:40.030Z,6.05
2019-06-26T01:10:09.720Z,8.90
2019-06-26T01:12:39.018Z,8.35
2019-06-26T01:15:08.387Z,7.50
2019-06-26T01:17:37.708Z,6.10
2019-06-26T01:20:09.842Z,6.80
2019-06-26T01:25:07.768Z,10.65
2019-06-26T01:27:38.141Z,7.58
2019-06-26T01:30:07.620Z,9.68
2019-06-26T01:32:36.854Z,10.28
2019-06-26T01:35:09.035Z,9.18
2019-06-26T01:37:38.288Z,9.03
2019-06-26T01:40:07.558Z,10.13
2019-06-26T01:42:36.911Z,12.35
2019-06-26T01:45:07.269Z,16.05
2019-06-26T01:47:36.531Z,20.27
2019-06-26T01:50:06.847Z,13.35
2019-06-26T01:52:36.249Z,10.45
2019-06-26T01:55:06.292Z,8.53
2019-06-26T01:57:35.540Z,8.93
2019-06-26T02:00:07.187Z,8.73
2019-06-26T02:02:36.499Z,7.42
2019-06-26T02:05:08.993Z,8.53
2019-06-26T02:07:38.293Z,10.20
2019-06-26T02:10:07.971Z,6.95
2019-06-26T02:12:37.304Z,7.72
2019-06-26T02:15:08.632Z,12.85
2019-06-26T02:17:37.912Z,7.00
2019-06-26T02:20:07.747Z,8.60
2019-06-26T02:22:37.111Z,10.08
2019-06-26T02:25:06.596Z,7.50
2019-06-26T02:27:35.921Z,10.20
2019-06-26T02:30:06.749Z,6.17
2019-06-26T02:32:36.069Z,7.87
2019-06-26T02:35:09.555Z,11.95
2019-06-26T02:37:38.058Z,37.67
2019-06-26T02:40:08.051Z,19.52
2019-06-26T02:42:37.234Z,14.10
2019-06-26T02:45:06.627Z,14.47
2019-06-26T02:47:35.818Z,21.73
2019-06-26T02:50:09.836Z,12.70
2019-06-26T02:52:39.197Z,11.40
2019-06-26T02:55:08.662Z,9.63
2019-06-26T02:57:37.995Z,19.50
2019-06-26T03:00:07.412Z,21.85
2019-06-26T03:02:36.859Z,14.55
2019-06-26T03:05:07.100Z,14.60
2019-06-26T03:07:36.492Z,10.98
2019-06-26T03:10:07.427Z,13.78
2019-06-26T03:12:36.615Z,11.12
2019-06-26T03:15:09.753Z,14.58
2019-06-26T03:17:54.049Z,9.00
2019-06-26T03:20:10.543Z,10.18
2019-06-26T03:22:40.050Z,9.58
2019-06-26T03:25:09.588Z,8.30
2019-06-26T03:27:38.771Z,10.15
2019-06-26T03:30:08.275Z,8.70
2019-06-26T03:32:37.795Z,12.90
2019-06-26T03:35:07.204Z,9.85
2019-06-26T03:37:36.564Z,8.93
2019-06-26T03:40:09.031Z,7.80
2019-06-26T03:42:38.206Z,7.12
2019-06-26T03:45:24.134Z,10.25
2019-06-26T03:47:38.763Z,9.85
2019-06-26T03:50:08.014Z,11.93
2019-06-26T03:52:37.188Z,9.65
2019-06-26T03:55:06.423Z,14.45
2019-06-26T03:57:35.595Z,8.50
2019-06-26T04:00:07.154Z,11.57
2019-06-26T04:02:36.436Z,7.97
2019-06-26T04:05:06.307Z,11.68
2019-06-26T04:07:35.666Z,11.45
2019-06-26T04:10:06.712Z,7.78
2019-06-26T04:12:35.883Z,8.30
2019-06-26T04:15:06.733Z,10.85
2019-06-26T04:17:36.048Z,9.13
2019-06-26T04:20:07.008Z,8.83
2019-06-26T04:22:36.245Z,11.85
2019-06-26T04:25:08.729Z,8.05
2019-06-26T04:27:37.980Z,8.25
2019-06-26T04:30:10.094Z,25.65
2019-06-26T04:32:39.630Z,7.65
2019-06-26T04:35:08.878Z,9.58
2019-06-26T04:37:38.080Z,11.18
2019-06-26T04:40:07.858Z,10.60
2019-06-26T04:42:37.189Z,17.32
2019-06-26T04:45:09.384Z,12.10
2019-06-26T04:47:38.587Z,8.95
2019-06-26T04:50:07.894Z,9.68
2019-06-26T04:52:37.183Z,8.05
2019-06-26T04:55:07.265Z,8.55
2019-06-26T04:57:36.513Z,8.48
2019-06-26T05:00:08.892Z,11.78
2019-06-26T05:02:38.276Z,11.10
2019-06-26T05:05:07.596Z,9.68
2019-06-26T05:07:36.852Z,10.78
2019-06-26T05:10:08.023Z,10.82
2019-06-26T05:15:07.740Z,6.95
2019-06-26T05:17:37.026Z,9.35
2019-06-26T05:20:09.031Z,7.60
2019-06-26T05:22:38.365Z,9.13
2019-06-26T05:25:07.775Z,10.95
2019-06-26T05:27:37.082Z,8.73
2019-06-26T05:30:07.493Z,9.93
2019-06-26T05:32:36.683Z,9.13
2019-06-26T05:35:07.785Z,7.72
2019-06-26T05:40:11.164Z,9.70
2019-06-26T05:42:40.375Z,9.78
2019-06-26T05:45:10.764Z,16.20
2019-06-26T05:47:39.939Z,13.47
2019-06-26T05:50:09.654Z,8.23
2019-06-26T05:52:42.549Z,8.50
2019-06-26T05:55:10.133Z,8.90
2019-06-26T05:57:41.811Z,8.60
2019-06-26T06:00:10.678Z,8.90
2019-06-26T06:02:40.747Z,16.37
2019-06-26T06:05:10.077Z,12.60
2019-06-26T06:07:39.257Z,10.43
2019-06-26T06:10:08.525Z,10.90
2019-06-26T06:12:37.853Z,20.97
2019-06-26T06:15:07.600Z,12.13
2019-06-26T06:17:37.094Z,12.33
2019-06-26T06:20:07.909Z,11.35
2019-06-26T06:22:37.111Z,13.55
2019-06-26T06:25:06.421Z,10.72
2019-06-26T06:27:35.652Z,10.88
2019-06-26T06:30:06.549Z,10.80
2019-06-26T06:32:35.731Z,11.18
2019-06-26T06:35:07.342Z,12.70
2019-06-26T06:37:36.590Z,14.07
2019-06-26T06:40:07.442Z,14.98
2019-06-26T06:42:36.631Z,12.58
2019-06-26T06:45:06.749Z,11.93
2019-06-26T06:47:36.069Z,12.63
2019-06-26T06:50:06.402Z,13.88
2019-06-26T06:52:35.731Z,15.72
2019-06-26T06:55:06.716Z,13.03
2019-06-26T06:57:35.921Z,13.62
2019-06-26T07:00:08.219Z,12.40
2019-06-26T07:02:37.668Z,13.13
2019-06-26T07:05:09.409Z,13.60
2019-06-26T07:07:38.667Z,12.53
2019-06-26T07:10:08.051Z,15.30
2019-06-26T07:12:37.364Z,15.45
2019-06-26T07:15:07.560Z,15.43
2019-06-26T07:17:36.868Z,13.40
2019-06-26T07:20:06.540Z,16.70
2019-06-26T07:22:35.787Z,14.58
2019-06-26T07:25:06.338Z,13.88
2019-06-26T07:27:35.731Z,13.70
2019-06-26T07:30:06.794Z,14.40
2019-06-26T07:32:36.113Z,16.23
2019-06-26T07:35:06.099Z,14.98
2019-06-26T07:37:35.360Z,32.05
2019-06-26T07:40:17.873Z,14.50
2019-06-26T07:42:47.097Z,15.40
2019-06-26T07:45:16.279Z,32.50
2019-06-26T07:47:45.501Z,15.40
2019-06-26T07:50:14.734Z,15.68
2019-06-26T07:52:43.998Z,16.48
2019-06-26T07:55:13.249Z,16.90
2019-06-26T07:57:42.497Z,17.05
2019-06-26T08:00:11.883Z,16.97
2019-06-26T08:02:41.204Z,18.75
2019-06-26T08:05:11.141Z,20.30
2019-06-26T08:07:40.329Z,18.57
2019-06-26T08:10:09.603Z,18.17
2019-06-26T08:12:38.857Z,18.62
2019-06-26T08:15:08.304Z,17.85
2019-06-26T08:17:37.566Z,18.87
2019-06-26T08:20:06.879Z,15.40
2019-06-26T08:22:36.114Z,19.23
2019-06-26T08:25:08.294Z,17.65
2019-06-26T08:27:37.484Z,17.52
2019-06-26T08:30:28.806Z,16.52
2019-06-26T08:33:08.632Z,17.95
2019-06-26T08:35:37.829Z,17.77
2019-06-26T08:38:12.440Z,21.68
2019-06-26T08:40:38.107Z,15.93
2019-06-26T08:43:07.366Z,14.90
2019-06-26T08:45:36.618Z,16.52
2019-06-26T08:48:18.980Z,16.27
2019-06-26T08:50:36.848Z,16.67
2019-06-26T08:53:06.096Z,15.72
2019-06-26T08:55:35.378Z,16.12
2019-06-26T08:58:05.735Z,15.50
2019-06-26T09:03:03.689Z,19.27
2019-06-26T09:05:47.058Z,16.80
2019-06-26T09:08:03.944Z,19.32
2019-06-26T09:10:33.155Z,16.32
2019-06-26T09:13:02.461Z,15.85
2019-06-26T09:15:31.662Z,15.72
2019-06-26T09:18:00.845Z,16.67
2019-06-26T09:20:40.689Z,18.55
2019-06-26T09:23:09.885Z,16.80
2019-06-26T09:25:39.139Z,17.75
2019-06-26T09:28:08.367Z,17.05
2019-06-26T09:30:37.609Z,15.43
2019-06-26T09:33:06.792Z,14.18
2019-06-26T09:35:35.991Z,15.25
2019-06-26T09:38:05.369Z,18.48
2019-06-26T09:40:34.587Z,14.75
2019-06-26T09:43:03.862Z,14.53
2019-06-26T09:45:33.061Z,15.15
2019-06-26T09:48:02.320Z,15.65
2019-06-26T09:50:31.565Z,15.30
2019-06-26T09:53:00.830Z,16.00
2019-06-26T09:55:30.093Z,14.75
2019-06-26T09:57:59.310Z,16.40
2019-06-26T10:00:28.522Z,15.13
2019-06-26T10:02:57.997Z,18.37
2019-06-26T10:05:27.177Z,15.60
2019-06-26T10:07:56.358Z,17.40
2019-06-26T10:10:25.924Z,16.42
2019-06-26T10:12:55.178Z,20.37
2019-06-26T10:15:24.432Z,14.53
2019-06-26T10:17:53.662Z,13.90
2019-06-26T10:20:22.881Z,14.95
2019-06-26T10:22:52.138Z,17.57
2019-06-26T10:25:21.382Z,14.68
2019-06-26T10:27:50.622Z,16.32
2019-06-26T10:30:19.809Z,19.62
2019-06-26T10:32:49.124Z,14.33
2019-06-26T10:35:18.393Z,16.37
2019-06-26T10:37:47.705Z,15.95
2019-06-26T10:40:17.009Z,15.48
2019-06-26T10:42:46.327Z,15.53
2019-06-26T10:45:15.587Z,16.15
2019-06-26T10:47:44.777Z,13.90
2019-06-26T10:50:14.142Z,17.02
2019-06-26T10:52:43.327Z,13.15
2019-06-26T10:55:12.575Z,14.85
2019-06-26T10:57:41.831Z,16.45
2019-06-26T11:00:11.304Z,14.60
2019-06-26T11:02:40.539Z,18.27
2019-06-26T11:05:09.761Z,16.32
2019-06-26T11:07:38.945Z,13.72
2019-06-26T11:10:08.745Z,17.32
2019-06-26T11:12:38.233Z,15.85
2019-06-26T11:15:08.348Z,16.67
2019-06-26T11:17:37.573Z,19.27
2019-06-26T11:20:07.562Z,33.70
2019-06-26T11:22:37.043Z,16.70
2019-06-26T11:25:07.215Z,16.02
2019-06-26T11:27:36.571Z,17.30
2019-06-26T11:30:11.064Z,15.65
2019-06-26T11:32:40.260Z,17.48
2019-06-26T11:35:09.522Z,19.05
2019-06-26T11:37:38.828Z,16.75
2019-06-26T11:40:09.055Z,16.35
2019-06-26T11:42:38.289Z,16.30
2019-06-26T11:45:07.896Z,16.27
2019-06-26T11:47:37.414Z,17.07
2019-06-26T11:50:07.991Z,16.80
2019-06-26T11:52:37.341Z,20.72
2019-06-26T11:55:09.397Z,17.57
2019-06-26T11:57:38.694Z,15.75
2019-06-26T12:00:11.987Z,16.02
2019-06-26T12:02:41.179Z,18.32
2019-06-26T12:05:11.263Z,22.93
2019-06-26T12:07:40.463Z,19.90
2019-06-26T12:10:09.997Z,19.15
2019-06-26T12:12:39.380Z,17.62
2019-06-26T12:15:10.077Z,17.67
2019-06-26T12:17:39.282Z,17.25
2019-06-26T12:20:18.690Z,17.25
2019-06-26T12:22:39.525Z,29.65
2019-06-26T12:25:08.772Z,16.93
2019-06-26T12:27:38.021Z,17.52
2019-06-26T12:30:07.631Z,16.97
2019-06-26T12:32:42.320Z,20.35
2019-06-26T12:35:07.774Z,19.57
2019-06-26T12:37:38.289Z,26.62
2019-06-26T12:40:07.839Z,21.42
2019-06-26T12:42:37.084Z,20.88
2019-06-26T12:45:09.762Z,17.82
2019-06-26T12:47:39.011Z,21.20
2019-06-26T12:50:08.638Z,16.95
2019-06-26T12:52:37.862Z,17.27
2019-06-26T12:55:07.115Z,18.70
2019-06-26T12:57:36.308Z,18.45
2019-06-26T13:00:08.885Z,17.77
2019-06-26T13:02:38.136Z,16.67
2019-06-26T13:05:07.531Z,18.62
2019-06-26T13:07:36.776Z,20.57
2019-06-26T13:10:08.066Z,17.48
2019-06-26T13:15:08.069Z,15.98
2019-06-26T13:17:37.315Z,15.63
2019-06-26T13:20:10.116Z,18.50
2019-06-26T13:22:39.161Z,16.35
2019-06-26T13:25:08.344Z,16.62
2019-06-26T13:27:37.649Z,14.68
2019-06-26T13:30:08.525Z,18.20
2019-06-26T13:32:37.779Z,15.32
2019-06-26T13:35:07.238Z,27.20
2019-06-26T13:37:36.415Z,15.32
2019-06-26T13:40:08.353Z,20.43
2019-06-26T13:42:37.640Z,20.45
2019-06-26T13:45:07.453Z,17.45
2019-06-26T13:47:36.705Z,18.30
2019-06-26T13:50:07.107Z,17.50
2019-06-26T13:52:36.320Z,19.97
2019-06-26T13:55:06.196Z,21.35
2019-06-26T13:57:35.508Z,20.32
2019-06-26T14:00:07.057Z,20.02
2019-06-26T14:02:36.249Z,22.42
2019-06-26T14:05:07.561Z,24.02
2019-06-26T14:10:08.168Z,21.48
2019-06-26T14:12:37.363Z,18.98
2019-06-26T14:15:07.173Z,20.40
2019-06-26T14:17:36.470Z,23.73
2019-06-26T14:20:06.401Z,18.37
2019-06-26T14:22:35.901Z,17.77
2019-06-26T14:25:06.849Z,20.80
2019-06-26T14:27:36.172Z,26.90
2019-06-26T14:30:07.182Z,20.48
2019-06-26T14:32:36.564Z,20.10
2019-06-26T14:35:07.427Z,24.77
2019-06-26T14:37:36.679Z,22.13
2019-06-26T14:40:08.602Z,18.23
2019-06-26T14:42:38.008Z,17.07
2019-06-26T14:45:07.919Z,17.87
2019-06-26T14:47:37.168Z,19.25
2019-06-26T14:50:07.387Z,19.40
2019-06-26T14:52:36.745Z,16.00
2019-06-26T14:55:06.771Z,16.67
2019-06-26T14:57:36.363Z,17.02
2019-06-26T15:00:07.940Z,18.50
2019-06-26T15:02:37.332Z,16.40
2019-06-26T15:05:09.722Z,15.58
2019-06-26T15:07:39.166Z,17.75
2019-06-26T15:10:08.617Z,16.00
2019-06-26T15:12:37.876Z,15.63
2019-06-26T15:15:07.795Z,15.65
2019-06-26T15:17:37.312Z,18.87
2019-06-26T15:20:08.198Z,17.57
2019-06-26T15:22:37.459Z,14.80
2019-06-26T15:25:07.184Z,17.52
2019-06-26T15:27:36.536Z,18.62
2019-06-26T15:30:08.009Z,15.83
2019-06-26T15:32:37.478Z,15.83
2019-06-26T15:35:07.494Z,16.15
2019-06-26T15:37:36.828Z,22.27
2019-06-26T15:40:06.813Z,18.40
2019-06-26T15:42:36.161Z,25.85
2019-06-26T15:45:06.220Z,21.05
2019-06-26T15:47:35.616Z,18.30
2019-06-26T15:50:10.744Z,19.40
2019-06-26T15:52:40.472Z,17.35
2019-06-26T15:55:10.427Z,18.55
2019-06-26T15:57:39.800Z,22.07
2019-06-26T16:00:09.199Z,20.32
2019-06-26T16:02:38.459Z,16.20
2019-06-26T16:05:08.054Z,18.52
2019-06-26T16:07:37.379Z,30.92
2019-06-26T16:10:07.194Z,17.73
2019-06-26T16:12:37.750Z,18.35
2019-06-26T16:15:07.327Z,14.80
2019-06-26T16:17:41.028Z,17.32
2019-06-26T16:20:10.744Z,18.40
2019-06-26T16:22:40.236Z,16.90
2019-06-26T16:25:09.579Z,14.83
2019-06-26T16:27:38.817Z,17.80
2019-06-26T16:30:08.246Z,14.20
2019-06-26T16:32:37.631Z,14.00
2019-06-26T16:35:07.372Z,15.28
2019-06-26T16:37:38.002Z,16.32
2019-06-26T16:40:07.468Z,17.55
2019-06-26T16:42:36.836Z,16.70
2019-06-26T16:45:06.650Z,16.42
2019-06-26T16:47:36.036Z,17.70
2019-06-26T16:50:07.342Z,16.57
2019-06-26T16:52:48.617Z,19.23
2019-06-26T16:55:07.926Z,14.95
2019-06-26T16:57:37.246Z,23.47
2019-06-26T17:00:09.971Z,13.95
2019-06-26T17:02:38.953Z,16.90
2019-06-26T17:05:08.191Z,15.48
2019-06-26T17:07:37.462Z,18.30
2019-06-26T17:10:07.679Z,15.30
2019-06-26T17:12:37.478Z,15.20
2019-06-26T17:15:08.143Z,22.85
2019-06-26T17:17:37.637Z,16.87
2019-06-26T17:20:08.033Z,17.95
2019-06-26T17:22:37.825Z,15.78
2019-06-26T17:25:07.585Z,15.80
2019-06-26T17:27:36.995Z,16.77
2019-06-26T17:30:07.320Z,15.83
2019-06-26T17:32:36.653Z,15.72
2019-06-26T17:35:09.036Z,21.00
2019-06-26T17:37:38.423Z,15.70
2019-06-26T17:40:08.521Z,15.20
2019-06-26T17:42:37.797Z,17.52
2019-06-26T17:45:07.421Z,20.92
2019-06-26T17:47:36.677Z,30.68
2019-06-26T17:50:06.308Z,23.10
2019-06-26T17:52:38.382Z,26.30
2019-06-26T17:55:08.888Z,31.07
2019-06-26T17:57:39.351Z,24.75
2019-06-26T18:00:10.063Z,31.30
2019-06-26T18:02:39.487Z,57.98
2019-06-26T18:05:10.174Z,41.60
2019-06-26T18:07:39.655Z,35.68
2019-06-26T18:10:08.941Z,45.75
2019-06-26T18:12:38.226Z,54.75
2019-06-26T18:15:08.012Z,33.65
2019-06-26T18:17:37.343Z,36.50
2019-06-26T18:20:11.425Z,51.42
2019-06-26T18:22:40.754Z,50.92
2019-06-26T18:25:11.422Z,31.23
2019-06-26T18:27:40.615Z,38.20
2019-06-26T18:30:12.449Z,43.20
2019-06-26T18:32:41.846Z,51.90
2019-06-26T18:35:13.754Z,43.38
2019-06-26T18:37:43.081Z,64.35
2019-06-26T18:40:15.116Z,80.60
2019-06-26T18:42:46.878Z,64.55
2019-06-26T18:45:16.360Z,65.22
2019-06-26T18:47:45.603Z,78.42
2019-06-26T18:50:15.084Z,84.42
2019-06-26T18:52:44.344Z,80.55
2019-06-26T18:55:13.751Z,175.65
2019-06-26T18:57:42.956Z,93.45
2019-06-26T19:00:12.255Z,87.92
2019-06-26T19:02:41.599Z,88.82
2019-06-26T19:05:11.102Z,89.22
2019-06-26T19:07:40.456Z,98.05
2019-06-26T19:10:10.785Z,73.70
2019-06-26T19:12:40.629Z,79.20
2019-06-26T19:15:09.990Z,83.12
2019-06-26T19:17:42.446Z,82.92
2019-06-26T19:20:10.553Z,80.35
2019-06-26T19:22:39.871Z,71.72
2019-06-26T19:25:09.909Z,72.45
2019-06-26T19:27:39.262Z,81.42
2019-06-26T19:30:09.736Z,46.05
2019-06-26T19:32:39.028Z,58.10
2019-06-26T19:35:18.302Z,64.53
2019-06-26T19:40:09.177Z,50.45
2019-06-26T19:42:38.616Z,43.83
2019-06-26T19:45:11.431Z,42.67
2019-06-26T19:47:40.791Z,41.58
2019-06-26T19:50:11.297Z,54.40
2019-06-26T19:52:40.786Z,42.48
2019-06-26T19:55:10.102Z,40.85
2019-06-26T19:57:39.422Z,44.73
2019-06-26T20:00:11.734Z,49.42
2019-06-26T20:02:41.071Z,43.50
2019-06-26T20:05:10.323Z,36.45
2019-06-26T20:07:39.832Z,34.75
2019-06-26T20:10:09.305Z,43.02
2019-06-26T20:12:38.544Z,39.42
2019-06-26T20:15:07.909Z,34.18
2019-06-26T20:17:38.145Z,47.23
2019-06-26T20:20:07.917Z,42.53
2019-06-26T20:22:37.362Z,30.17
2019-06-26T20:25:07.693Z,29.37
2019-06-26T20:27:37.156Z,41.42
2019-06-26T20:30:09.870Z,41.10
2019-06-26T20:32:39.461Z,40.75
2019-06-26T20:35:08.723Z,37.08
2019-06-26T20:37:38.145Z,38.45
2019-06-26T20:40:07.968Z,45.58
2019-06-26T20:42:37.302Z,39.90
2019-06-26T20:45:06.995Z,50.58
2019-06-26T20:47:38.373Z,40.65
2019-06-26T20:50:07.606Z,38.40
2019-06-26T20:52:37.037Z,41.68
2019-06-26T20:55:06.553Z,46.95
2019-06-26T21:00:30.189Z,45.83
2019-06-26T21:02:59.365Z,47.78
2019-06-26T21:05:29.138Z,49.05
2019-06-26T21:07:58.541Z,48.02
2019-06-26T21:10:27.740Z,49.20
2019-06-26T21:12:56.915Z,53.90
2019-06-26T21:15:26.215Z,46.68
2019-06-26T21:17:55.498Z,42.05
2019-06-26T21:20:24.749Z,42.33
2019-06-26T21:22:54.078Z,44.67
2019-06-26T21:25:23.352Z,41.50
2019-06-26T21:27:52.568Z,44.27
2019-06-26T21:30:21.954Z,34.75
2019-06-26T21:32:51.144Z,31.90
2019-06-26T21:35:20.602Z,29.30
2019-06-26T21:37:49.931Z,27.77
2019-06-26T21:40:19.252Z,26.57
2019-06-26T21:42:48.502Z,31.48
2019-06-26T21:45:20.367Z,25.43
2019-06-26T21:47:49.557Z,24.87
2019-06-26T21:50:18.781Z,24.32
2019-06-26T21:52:48.029Z,22.37
2019-06-26T21:55:30.199Z,24.02
2019-06-26T21:57:48.289Z,20.77
2019-06-26T22:00:18.882Z,17.85
2019-06-26T22:02:48.072Z,23.98
2019-06-26T22:05:18.076Z,23.50
2019-06-26T22:07:47.259Z,23.22
2019-06-26T22:10:16.515Z,19.37
2019-06-26T22:12:45.895Z,23.02
2019-06-26T22:15:15.152Z,21.93
2019-06-26T22:17:44.411Z,25.92
2019-06-26T22:20:13.780Z,25.23
2019-06-26T22:22:43.083Z,21.85
2019-06-26T22:25:12.252Z,18.62
2019-06-26T22:27:41.465Z,18.87
2019-06-26T22:30:10.744Z,19.65
2019-06-26T22:32:40.097Z,22.93
2019-06-26T22:35:09.873Z,24.27
2019-06-26T22:37:39.133Z,18.52
2019-06-26T22:40:08.518Z,21.55
2019-06-26T22:42:37.698Z,20.10
2019-06-26T22:45:07.028Z,20.82
2019-06-26T22:47:36.263Z,22.13
2019-06-26T22:50:08.410Z,17.57
2019-06-26T22:52:37.664Z,17.23
2019-06-26T22:55:07.162Z,21.42
2019-06-26T22:57:37.765Z,19.60
2019-06-26T23:00:12.889Z,20.00
2019-06-26T23:02:42.076Z,17.05
2019-06-26T23:05:11.382Z,22.10
2019-06-26T23:07:40.672Z,19.55
2019-06-26T23:10:09.879Z,15.85
2019-06-26T23:12:39.059Z,19.87
2019-06-26T23:15:08.824Z,17.57
2019-06-26T23:17:38.039Z,22.55
2019-06-26T23:20:07.604Z,20.05
2019-06-26T23:22:36.934Z,19.25
2019-06-26T23:25:08.863Z,19.30
2019-06-26T23:30:15.646Z,23.47
2019-06-26T23:32:44.836Z,20.32
2019-06-26T23:35:14.160Z,16.80
2019-06-26T23:37:43.492Z,18.82
2019-06-26T23:40:12.676Z,19.30
2019-06-26T23:43:01.416Z,19.65
2019-06-26T23:45:30.660Z,18.45
2019-06-26T23:47:59.926Z,16.93
2019-06-26T23:50:29.144Z,20.85
2019-06-26T23:52:58.330Z,17.48
2019-06-26T23:55:27.570Z,16.25
2019-06-26T23:57:59.438Z,19.20
